createdAt,value
2023-04-15T00:00:05.638Z,98.20
2023-04-15T00:00:37.516Z,98.27
2023-04-15T00:01:09.960Z,98.26
2023-04-15T00:01:41.649Z,98.33
2023-04-15T00:02:18.740Z,98.24
2023-04-15T00:02:50.661Z,98.09
2023-04-15T00:03:23.002Z,98.31
2023-04-15T00:03:55.898Z,97.92
2023-04-15T00:04:28.446Z,98.02
2023-04-15T00:05:00.208Z,98.01
2023-04-15T00:05:32.579Z,98.21
2023-04-15T00:06:04.210Z,98.48
2023-04-15T00:06:37.614Z,98.52
2023-04-15T00:07:09.294Z,97.90
2023-04-15T00:07:41.396Z,97.94
2023-04-15T00:08:13.725Z,97.89
2023-04-15T00:08:49.181Z,97.80
2023-04-15T00:09:21.202Z,97.88
2023-04-15T00:09:55.252Z,98.19
2023-04-15T00:10:27.925Z,97.83
2023-04-15T00:11:03.220Z,97.69
2023-04-15T00:11:35.075Z,97.60
2023-04-15T00:12:06.842Z,97.72
2023-04-15T00:12:38.542Z,97.66
2023-04-15T00:13:10.441Z,97.86
2023-04-15T00:13:42.071Z,97.87
2023-04-15T00:14:13.908Z,97.91
2023-04-15T00:14:45.547Z,98.18
2023-04-15T00:15:17.553Z,98.12
2023-04-15T00:15:49.225Z,97.84
2023-04-15T00:16:21.385Z,98.01
2023-04-15T00:16:56.400Z,98.04
2023-04-15T00:17:28.202Z,98.46
2023-04-15T00:17:59.857Z,98.57
2023-04-15T00:18:31.784Z,98.20
2023-04-15T00:19:03.613Z,97.91
2023-04-15T00:19:35.325Z,97.92
2023-04-15T00:20:07.332Z,98.28
2023-04-15T00:20:39.001Z,98.58
2023-04-15T00:21:10.642Z,98.27
2023-04-15T00:21:42.327Z,98.32
2023-04-15T00:22:13.999Z,98.29
2023-04-15T00:22:46.451Z,98.18
2023-04-15T00:23:18.409Z,98.43
2023-04-15T00:23:52.757Z,97.92
2023-04-15T00:24:24.613Z,97.71
2023-04-15T00:24:56.513Z,97.82
2023-04-15T00:25:28.368Z,97.71
2023-04-15T00:25:59.958Z,97.94
2023-04-15T00:26:32.056Z,97.89
2023-04-15T00:27:04.387Z,97.65
2023-04-15T00:27:36.087Z,97.79
2023-04-15T00:28:08.659Z,97.63
2023-04-15T00:28:40.259Z,97.53
2023-04-15T00:29:11.838Z,97.55
2023-04-15T00:29:43.599Z,97.66
2023-04-15T00:30:15.239Z,97.67
2023-04-15T00:30:47.440Z,97.88
2023-04-15T00:31:19.159Z,97.82
2023-04-15T00:31:51.008Z,97.85
2023-04-15T00:32:22.691Z,97.77
2023-04-15T00:32:54.374Z,97.88
2023-04-15T00:33:26.023Z,97.85
2023-04-15T00:33:58.566Z,97.85
2023-04-15T00:34:30.538Z,97.76
2023-04-15T00:35:02.370Z,97.81
2023-04-15T00:35:34.741Z,98.02
2023-04-15T00:36:07.368Z,97.97
2023-04-15T00:36:39.007Z,97.93
2023-04-15T00:37:10.947Z,98.03
2023-04-15T00:37:44.809Z,98.28
2023-04-15T00:38:18.049Z,98.22
2023-04-15T00:38:49.619Z,98.10
2023-04-15T00:39:21.245Z,97.96
2023-04-15T00:39:52.931Z,98.09
2023-04-15T00:40:24.941Z,98.17
2023-04-15T00:40:56.685Z,98.28
2023-04-15T00:41:28.455Z,98.29
2023-04-15T00:42:00.544Z,98.13
2023-04-15T00:42:32.325Z,97.95
2023-04-15T00:43:04.500Z,97.80
2023-04-15T00:43:36.569Z,97.74
2023-04-15T00:44:08.427Z,97.62
2023-04-15T00:44:40.105Z,97.82
2023-04-15T00:45:12.254Z,98.06
2023-04-15T00:45:43.931Z,97.72
2023-04-15T00:46:17.736Z,97.59
2023-04-15T00:46:51.956Z,97.75
2023-04-15T00:47:23.882Z,97.83
2023-04-15T00:47:56.109Z,98.05
2023-04-15T00:48:28.321Z,97.82
2023-04-15T00:49:01.276Z,98.16
2023-04-15T00:49:33.236Z,98.24
2023-04-15T00:50:05.324Z,98.06
2023-04-15T00:50:36.917Z,97.81
2023-04-15T00:51:09.658Z,97.93
2023-04-15T00:51:41.555Z,97.91
2023-04-15T00:52:13.228Z,97.98
2023-04-15T00:52:44.802Z,97.81
2023-04-15T00:53:16.507Z,98.07
2023-04-15T00:53:48.093Z,97.79
2023-04-15T00:54:19.905Z,97.69
2023-04-15T00:54:51.613Z,97.93
2023-04-15T00:55:23.737Z,97.82
2023-04-15T00:55:56.170Z,97.64
2023-04-15T00:56:29.416Z,97.84
2023-04-15T00:57:01.828Z,97.87
2023-04-15T00:57:33.872Z,97.90
2023-04-15T00:58:05.495Z,98.08
2023-04-15T00:58:37.502Z,98.05
2023-04-15T00:59:09.618Z,98.28
2023-04-15T00:59:41.288Z,98.23
2023-04-15T01:00:13.266Z,97.93
2023-04-15T01:00:45.188Z,97.87
2023-04-15T01:01:17.660Z,97.81
2023-04-15T01:01:49.561Z,98.01
2023-04-15T01:02:21.910Z,98.18
2023-04-15T01:02:53.839Z,98.16
2023-04-15T01:03:25.918Z,98.05
2023-04-15T01:04:00.939Z,98.23
2023-04-15T01:04:32.842Z,98.19
2023-04-15T01:05:05.146Z,98.22
2023-04-15T01:05:36.970Z,98.04
2023-04-15T01:06:08.806Z,98.09
2023-04-15T01:06:41.177Z,97.92
2023-04-15T01:07:12.803Z,97.59
2023-04-15T01:07:44.453Z,97.90
2023-04-15T01:08:16.166Z,97.88
2023-04-15T01:08:47.800Z,98.05
2023-04-15T01:09:19.435Z,98.02
2023-04-15T01:09:51.315Z,97.98
2023-04-15T01:10:22.989Z,98.25
2023-04-15T01:10:57.108Z,98.45
2023-04-15T01:11:29.765Z,98.77
2023-04-15T01:12:02.657Z,98.26
2023-04-15T01:12:34.431Z,98.20
2023-04-15T01:13:06.028Z,98.63
2023-04-15T01:13:37.664Z,98.57
2023-04-15T01:14:10.253Z,98.28
2023-04-15T01:14:42.058Z,98.34
2023-04-15T01:15:13.709Z,98.42
2023-04-15T01:15:45.841Z,98.37
2023-04-15T01:16:18.224Z,98.39
2023-04-15T01:16:49.928Z,98.60
2023-04-15T01:17:21.753Z,98.44
2023-04-15T01:17:53.465Z,97.79
2023-04-15T01:18:25.371Z,97.74
2023-04-15T01:18:57.057Z,97.90
2023-04-15T01:19:29.000Z,98.17
2023-04-15T01:20:00.756Z,98.19
2023-04-15T01:20:32.909Z,98.00
2023-04-15T01:21:05.649Z,98.01
2023-04-15T01:21:41.027Z,98.01
2023-04-15T01:22:12.719Z,97.98
2023-04-15T01:22:46.062Z,97.95
2023-04-15T01:23:18.000Z,98.04
2023-04-15T01:23:52.388Z,97.81
2023-04-15T01:24:26.218Z,97.94
2023-04-15T01:25:08.425Z,97.84
2023-04-15T01:25:42.581Z,97.52
2023-04-15T01:26:14.927Z,97.41
2023-04-15T01:26:46.798Z,97.65
2023-04-15T01:27:18.515Z,97.66
2023-04-15T01:27:50.124Z,97.46
2023-04-15T01:28:21.965Z,97.55
2023-04-15T01:28:53.555Z,97.73
2023-04-15T01:29:25.256Z,97.62
2023-04-15T01:29:56.850Z,97.53
2023-04-15T01:30:28.450Z,97.40
2023-04-15T01:31:11.817Z,97.70
2023-04-15T01:31:53.206Z,97.90
2023-04-15T01:32:25.109Z,98.16
2023-04-15T01:32:56.812Z,97.89
2023-04-15T01:33:28.535Z,98.01
2023-04-15T01:34:00.223Z,98.12
2023-04-15T01:34:34.239Z,98.13
2023-04-15T01:35:07.838Z,98.59
2023-04-15T01:35:39.490Z,98.17
2023-04-15T01:36:11.264Z,98.22
2023-04-15T01:36:42.943Z,98.14
2023-04-15T01:37:14.583Z,98.11
2023-04-15T01:37:47.395Z,98.06
2023-04-15T01:38:19.375Z,98.05
2023-04-15T01:38:51.476Z,98.13
2023-04-15T01:39:23.514Z,98.18
2023-04-15T01:39:55.119Z,98.13
2023-04-15T01:40:26.736Z,98.17
2023-04-15T01:40:59.412Z,98.26
2023-04-15T01:41:31.097Z,98.43
2023-04-15T01:42:03.433Z,98.42
2023-04-15T01:42:36.762Z,98.41
2023-04-15T01:43:08.421Z,98.10
2023-04-15T01:43:40.227Z,98.00
2023-04-15T01:44:11.903Z,98.26
2023-04-15T01:44:43.520Z,98.62
2023-04-15T01:45:15.474Z,98.68
2023-04-15T01:45:47.113Z,98.71
2023-04-15T01:46:18.800Z,98.41
2023-04-15T01:46:50.482Z,98.16
2023-04-15T01:47:22.572Z,98.17
2023-04-15T01:47:54.516Z,97.91
2023-04-15T01:48:26.329Z,98.07
2023-04-15T01:48:58.152Z,98.24
2023-04-15T01:49:29.989Z,98.17
2023-04-15T01:50:01.823Z,98.27
2023-04-15T01:50:33.606Z,98.19
2023-04-15T01:51:05.776Z,98.13
2023-04-15T01:51:37.392Z,98.16
2023-04-15T01:52:09.276Z,98.22
2023-04-15T01:52:41.136Z,98.09
2023-04-15T01:53:12.728Z,97.92
2023-04-15T01:53:44.401Z,98.08
2023-04-15T01:54:16.332Z,97.95
2023-04-15T01:54:48.015Z,98.00
2023-04-15T01:55:19.678Z,98.03
2023-04-15T01:55:52.124Z,98.11
2023-04-15T01:56:26.781Z,98.10
2023-04-15T01:56:58.863Z,98.05
2023-04-15T01:57:30.775Z,98.07
2023-04-15T01:58:02.666Z,98.06
2023-04-15T01:58:34.259Z,98.18
2023-04-15T01:59:06.319Z,98.26
2023-04-15T01:59:38.347Z,98.03
2023-04-15T02:00:10.495Z,98.09
2023-04-15T02:00:42.916Z,98.22
2023-04-15T02:01:14.713Z,98.27
2023-04-15T02:01:46.662Z,98.27
2023-04-15T02:02:18.534Z,98.30
2023-04-15T02:02:50.734Z,98.46
2023-04-15T02:03:22.514Z,98.22
2023-04-15T02:03:54.207Z,98.18
2023-04-15T02:04:25.943Z,98.23
2023-04-15T02:04:58.104Z,98.43
2023-04-15T02:05:29.755Z,98.21
2023-04-15T02:06:01.330Z,98.26
2023-04-15T02:06:33.445Z,98.30
2023-04-15T02:07:05.075Z,98.21
2023-04-15T02:07:37.246Z,98.05
2023-04-15T02:08:09.584Z,98.07
2023-04-15T02:08:41.251Z,98.12
2023-04-15T02:09:12.979Z,98.37
2023-04-15T02:09:46.185Z,98.39
2023-04-15T02:10:17.990Z,98.46
2023-04-15T02:10:49.638Z,98.31
2023-04-15T02:11:21.294Z,98.55
2023-04-15T02:11:54.392Z,98.66
2023-04-15T02:12:26.106Z,98.65
2023-04-15T02:12:57.719Z,98.64
2023-04-15T02:13:29.742Z,98.76
2023-04-15T02:14:01.408Z,98.95
2023-04-15T02:14:33.060Z,98.55
2023-04-15T02:15:05.439Z,98.85
2023-04-15T02:15:37.218Z,98.59
2023-04-15T02:16:19.574Z,98.68
2023-04-15T02:16:51.716Z,98.41
2023-04-15T02:17:23.498Z,98.53
2023-04-15T02:17:55.526Z,98.60
2023-04-15T02:18:27.371Z,98.83
2023-04-15T02:19:00.469Z,98.83
2023-04-15T02:19:32.255Z,99.04
2023-04-15T02:20:08.666Z,98.91
2023-04-15T02:20:40.571Z,98.88
2023-04-15T02:21:12.146Z,98.83
2023-04-15T02:21:43.776Z,98.92
2023-04-15T02:22:18.669Z,98.90
2023-04-15T02:22:50.744Z,99.00
2023-04-15T02:23:22.339Z,99.04
2023-04-15T02:23:54.273Z,98.92
2023-04-15T02:24:26.488Z,98.87
2023-04-15T02:24:58.055Z,99.02
2023-04-15T02:25:29.674Z,99.04
2023-04-15T02:26:01.594Z,99.10
2023-04-15T02:26:33.535Z,99.11
2023-04-15T02:27:05.146Z,99.00
2023-04-15T02:27:36.804Z,99.11
2023-04-15T02:28:08.423Z,99.07
2023-04-15T02:28:40.120Z,99.10
2023-04-15T02:29:11.850Z,99.04
2023-04-15T02:29:44.808Z,98.88
2023-04-15T02:30:16.538Z,98.89
2023-04-15T02:30:52.959Z,98.80
2023-04-15T02:31:25.537Z,98.73
2023-04-15T02:31:57.236Z,98.68
2023-04-15T02:32:29.282Z,98.74
2023-04-15T02:33:01.810Z,98.85
2023-04-15T02:33:33.817Z,98.74
2023-04-15T02:34:05.552Z,98.84
2023-04-15T02:34:39.386Z,98.79
2023-04-15T02:35:11.988Z,98.96
2023-04-15T02:35:45.384Z,99.06
2023-04-15T02:36:17.306Z,99.06
2023-04-15T02:36:49.820Z,99.03
2023-04-15T02:37:21.465Z,99.00
2023-04-15T02:37:53.197Z,98.91
2023-04-15T02:38:25.014Z,99.00
2023-04-15T02:38:57.716Z,98.82
2023-04-15T02:39:29.358Z,98.83
2023-04-15T02:40:01.393Z,98.90
2023-04-15T02:40:33.409Z,98.82
2023-04-15T02:41:05.029Z,98.75
2023-04-15T02:41:36.767Z,98.72
2023-04-15T02:42:08.382Z,98.68
2023-04-15T02:42:41.248Z,98.76
2023-04-15T02:43:12.856Z,98.76
2023-04-15T02:43:44.453Z,98.57
2023-04-15T02:44:17.705Z,98.60
2023-04-15T02:44:49.341Z,98.64
2023-04-15T02:45:24.196Z,98.58
2023-04-15T02:45:55.941Z,98.54
2023-04-15T02:46:27.693Z,98.55
2023-04-15T02:46:59.422Z,98.54
2023-04-15T02:47:31.364Z,98.50
2023-04-15T02:48:06.438Z,98.55
2023-04-15T02:48:38.236Z,98.74
2023-04-15T02:49:11.005Z,98.40
2023-04-15T02:49:42.663Z,98.66
2023-04-15T02:50:15.225Z,98.67
2023-04-15T02:50:48.189Z,98.52
2023-04-15T02:51:22.756Z,98.61
2023-04-15T02:51:55.562Z,98.70
2023-04-15T02:52:27.592Z,98.88
2023-04-15T02:53:01.596Z,98.73
2023-04-15T02:53:33.431Z,98.50
2023-04-15T02:54:05.074Z,98.49
2023-04-15T02:54:36.886Z,98.53
2023-04-15T02:55:09.870Z,98.51
2023-04-15T02:55:42.899Z,98.56
2023-04-15T02:56:19.481Z,98.77
2023-04-15T02:56:52.252Z,98.48
2023-04-15T02:57:23.827Z,98.29
2023-04-15T02:57:56.013Z,98.37
2023-04-15T02:58:27.764Z,98.53
2023-04-15T02:58:59.613Z,98.55
2023-04-15T02:59:31.311Z,98.60
2023-04-15T03:00:04.810Z,98.44
2023-04-15T03:00:36.469Z,98.48
2023-04-15T03:01:11.131Z,98.59
2023-04-15T03:01:43.039Z,98.39
2023-04-15T03:02:14.856Z,98.49
2023-04-15T03:02:47.110Z,98.60
2023-04-15T03:03:19.179Z,98.69
2023-04-15T03:03:51.004Z,98.55
2023-04-15T03:04:22.725Z,98.40
2023-04-15T03:04:55.127Z,98.56
2023-04-15T03:05:27.118Z,98.55
2023-04-15T03:05:58.744Z,98.55
2023-04-15T03:06:31.000Z,98.56
2023-04-15T03:07:02.696Z,98.39
2023-04-15T03:07:34.320Z,98.55
2023-04-15T03:08:06.098Z,98.56
2023-04-15T03:08:37.749Z,98.59
2023-04-15T03:09:09.610Z,98.45
2023-04-15T03:09:41.366Z,98.62
2023-04-15T03:10:13.133Z,98.57
2023-04-15T03:10:44.745Z,98.66
2023-04-15T03:11:17.103Z,98.59
2023-04-15T03:11:48.705Z,98.64
2023-04-15T03:12:20.302Z,98.74
2023-04-15T03:12:51.881Z,99.16
2023-04-15T03:13:24.609Z,99.32
2023-04-15T03:13:56.352Z,99.06
2023-04-15T03:14:27.960Z,98.88
2023-04-15T03:15:00.482Z,98.49
2023-04-15T03:15:33.181Z,98.57
2023-04-15T03:16:05.829Z,98.63
2023-04-15T03:16:37.544Z,98.74
2023-04-15T03:17:09.249Z,98.78
2023-04-15T03:17:41.014Z,98.79
2023-04-15T03:18:12.795Z,98.57
2023-04-15T03:18:44.444Z,98.55
2023-04-15T03:19:16.688Z,98.67
2023-04-15T03:19:48.263Z,98.78
2023-04-15T03:20:20.453Z,98.81
2023-04-15T03:20:52.082Z,98.72
2023-04-15T03:21:24.068Z,98.79
2023-04-15T03:21:55.693Z,98.62
2023-04-15T03:22:27.324Z,98.55
2023-04-15T03:22:58.890Z,98.61
2023-04-15T03:23:31.687Z,98.62
2023-04-15T03:24:03.409Z,98.73
2023-04-15T03:24:35.063Z,98.97
2023-04-15T03:25:07.046Z,98.88
2023-04-15T03:25:38.656Z,98.81
2023-04-15T03:26:10.430Z,98.87
2023-04-15T03:26:42.056Z,98.92
2023-04-15T03:27:13.875Z,98.99
2023-04-15T03:27:45.630Z,98.95
2023-04-15T03:28:17.240Z,98.85
2023-04-15T03:28:48.948Z,98.81
2023-04-15T03:29:20.833Z,98.64
2023-04-15T03:29:52.414Z,98.35
2023-04-15T03:30:24.069Z,98.34
2023-04-15T03:30:55.973Z,98.46
2023-04-15T03:31:27.803Z,98.54
2023-04-15T03:31:59.489Z,98.77
2023-04-15T03:32:31.726Z,98.95
2023-04-15T03:33:03.501Z,98.75
2023-04-15T03:33:35.057Z,98.65
2023-04-15T03:34:06.759Z,98.55
2023-04-15T03:34:38.379Z,98.57
2023-04-15T03:35:10.276Z,98.73
2023-04-15T03:35:42.160Z,98.68
2023-04-15T03:36:13.834Z,98.60
2023-04-15T03:36:46.875Z,98.55
2023-04-15T03:37:18.485Z,98.47
2023-04-15T03:37:50.099Z,98.64
2023-04-15T03:38:21.843Z,98.54
2023-04-15T03:38:53.472Z,98.62
2023-04-15T03:39:25.108Z,98.77
2023-04-15T03:39:56.747Z,98.70
2023-04-15T03:40:28.439Z,98.78
2023-04-15T03:41:00.128Z,98.93
2023-04-15T03:41:32.940Z,98.65
2023-04-15T03:42:04.724Z,98.76
2023-04-15T03:42:36.407Z,98.82
2023-04-15T03:43:08.070Z,98.90
2023-04-15T03:43:39.632Z,98.92
2023-04-15T03:44:11.241Z,99.01
2023-04-15T03:44:42.925Z,98.88
2023-04-15T03:45:14.719Z,98.88
2023-04-15T03:45:46.417Z,98.94
2023-04-15T03:46:18.822Z,98.95
2023-04-15T03:46:50.966Z,98.93
2023-04-15T03:47:22.968Z,98.98
2023-04-15T03:47:54.616Z,99.07
2023-04-15T03:48:26.640Z,98.97
2023-04-15T03:48:58.786Z,98.88
2023-04-15T03:49:30.536Z,98.95
2023-04-15T03:50:02.135Z,98.88
2023-04-15T03:50:33.853Z,98.93
2023-04-15T03:51:05.973Z,98.86
2023-04-15T03:51:37.640Z,98.80
2023-04-15T03:52:09.320Z,98.74
2023-04-15T03:52:41.060Z,98.99
2023-04-15T03:53:12.874Z,98.91
2023-04-15T03:53:44.616Z,98.99
2023-04-15T03:54:16.346Z,98.91
2023-04-15T03:54:47.956Z,98.98
2023-04-15T03:55:20.304Z,98.93
2023-04-15T03:55:52.440Z,98.95
2023-04-15T03:56:24.206Z,98.92
2023-04-15T03:56:56.023Z,98.95
2023-04-15T03:57:27.675Z,99.04
2023-04-15T03:57:59.281Z,98.92
2023-04-15T03:58:30.866Z,98.98
2023-04-15T03:59:02.739Z,99.07
2023-04-15T03:59:34.566Z,99.06
2023-04-15T04:00:07.407Z,99.03
2023-04-15T04:00:39.878Z,98.95
2023-04-15T04:01:11.787Z,99.00
2023-04-15T04:01:43.583Z,99.05
2023-04-15T04:02:15.727Z,99.04
2023-04-15T04:02:47.493Z,98.96
2023-04-15T04:03:19.587Z,99.04
2023-04-15T04:03:51.709Z,99.06
2023-04-15T04:04:23.757Z,99.00
2023-04-15T04:04:55.432Z,98.90
2023-04-15T04:05:27.039Z,99.02
2023-04-15T04:05:58.692Z,99.00
2023-04-15T04:06:31.192Z,99.02
2023-04-15T04:07:02.817Z,99.04
2023-04-15T04:07:34.431Z,99.16
2023-04-15T04:08:06.517Z,99.19
2023-04-15T04:08:38.246Z,99.22
2023-04-15T04:09:09.878Z,99.20
2023-04-15T04:09:42.172Z,99.34
2023-04-15T04:10:13.806Z,99.12
2023-04-15T04:10:45.475Z,98.88
2023-04-15T04:11:17.246Z,98.79
2023-04-15T04:11:48.863Z,98.79
2023-04-15T04:12:20.608Z,98.91
2023-04-15T04:12:52.248Z,98.88
2023-04-15T04:13:24.004Z,98.94
2023-04-15T04:13:55.664Z,98.95
2023-04-15T04:14:29.829Z,99.06
2023-04-15T04:15:01.800Z,99.03
2023-04-15T04:15:33.809Z,98.92
2023-04-15T04:16:05.990Z,99.10
2023-04-15T04:16:37.832Z,99.02
2023-04-15T04:17:09.596Z,99.03
2023-04-15T04:17:41.537Z,98.92
2023-04-15T04:18:13.266Z,98.85
2023-04-15T04:18:44.929Z,98.89
2023-04-15T04:19:19.594Z,98.99
2023-04-15T04:19:51.181Z,99.06
2023-04-15T04:20:23.073Z,99.06
2023-04-15T04:20:55.483Z,99.00
2023-04-15T04:21:27.200Z,98.94
2023-04-15T04:21:58.948Z,99.03
2023-04-15T04:22:30.673Z,98.98
2023-04-15T04:23:02.290Z,99.11
2023-04-15T04:23:33.934Z,98.99
2023-04-15T04:24:05.733Z,99.04
2023-04-15T04:24:37.300Z,99.00
2023-04-15T04:25:10.303Z,98.94
2023-04-15T04:25:42.258Z,98.94
2023-04-15T04:26:13.921Z,98.98
2023-04-15T04:26:45.490Z,98.98
2023-04-15T04:27:17.082Z,98.86
2023-04-15T04:27:48.665Z,98.85
2023-04-15T04:28:20.254Z,98.87
2023-04-15T04:28:52.249Z,98.95
2023-04-15T04:29:23.943Z,98.85
2023-04-15T04:29:55.643Z,98.95
2023-04-15T04:30:27.329Z,98.97
2023-04-15T04:30:59.095Z,99.13
2023-04-15T04:31:31.066Z,99.09
2023-04-15T04:32:02.844Z,99.06
2023-04-15T04:32:34.530Z,99.05
2023-04-15T04:33:07.333Z,99.15
2023-04-15T04:33:39.068Z,99.19
2023-04-15T04:34:10.925Z,99.18
2023-04-15T04:34:42.498Z,99.20
2023-04-15T04:35:14.076Z,99.09
2023-04-15T04:35:45.744Z,99.26
2023-04-15T04:36:17.336Z,99.17
2023-04-15T04:36:48.912Z,99.17
2023-04-15T04:37:20.610Z,99.09
2023-04-15T04:37:52.564Z,99.15
2023-04-15T04:38:24.171Z,99.16
2023-04-15T04:38:56.193Z,99.04
2023-04-15T04:39:27.820Z,99.13
2023-04-15T04:39:59.433Z,98.97
2023-04-15T04:40:31.274Z,98.96
2023-04-15T04:41:02.997Z,98.86
2023-04-15T04:41:34.828Z,98.86
2023-04-15T04:42:06.481Z,98.73
2023-04-15T04:42:39.879Z,98.70
2023-04-15T04:43:11.876Z,98.72
2023-04-15T04:43:43.489Z,98.69
2023-04-15T04:44:15.119Z,98.77
2023-04-15T04:44:47.262Z,98.77
2023-04-15T04:45:18.932Z,98.72
2023-04-15T04:45:50.601Z,98.81
2023-04-15T04:46:22.284Z,98.70
2023-04-15T04:46:54.099Z,98.84
2023-04-15T04:47:25.914Z,98.66
2023-04-15T04:47:57.644Z,98.68
2023-04-15T04:48:29.260Z,98.66
2023-04-15T04:49:01.067Z,98.79
2023-04-15T04:49:33.035Z,98.80
2023-04-15T04:50:05.043Z,98.91
2023-04-15T04:50:36.990Z,99.09
2023-04-15T04:51:09.533Z,99.11
2023-04-15T04:51:41.257Z,99.10
2023-04-15T04:52:13.080Z,98.96
2023-04-15T04:52:44.861Z,98.93
2023-04-15T04:53:16.516Z,98.86
2023-04-15T04:53:48.172Z,98.77
2023-04-15T04:54:19.838Z,98.82
2023-04-15T04:54:51.709Z,98.87
2023-04-15T04:55:23.358Z,98.81
2023-04-15T04:55:55.212Z,98.91
2023-04-15T04:56:27.143Z,98.86
2023-04-15T04:56:58.947Z,98.82
2023-04-15T04:57:30.619Z,98.90
2023-04-15T04:58:02.406Z,98.97
2023-04-15T04:58:34.048Z,98.96
2023-04-15T04:59:07.074Z,98.87
2023-04-15T04:59:39.024Z,99.06
2023-04-15T05:00:11.149Z,98.95
2023-04-15T05:00:42.922Z,98.83
2023-04-15T05:01:14.623Z,98.93
2023-04-15T05:01:46.743Z,98.77
2023-04-15T05:02:19.134Z,98.71
2023-04-15T05:02:51.152Z,98.77
2023-04-15T05:03:23.172Z,98.47
2023-04-15T05:03:55.765Z,98.59
2023-04-15T05:04:27.462Z,98.50
2023-04-15T05:04:59.085Z,98.58
2023-04-15T05:05:30.816Z,98.63
2023-04-15T05:06:06.156Z,98.66
2023-04-15T05:06:37.800Z,98.82
2023-04-15T05:07:09.415Z,98.69
2023-04-15T05:07:40.991Z,98.82
2023-04-15T05:08:12.674Z,98.66
2023-04-15T05:08:44.339Z,98.71
2023-04-15T05:09:16.112Z,98.73
2023-04-15T05:09:47.922Z,98.81
2023-04-15T05:10:19.588Z,98.97
2023-04-15T05:10:51.250Z,98.94
2023-04-15T05:11:22.844Z,98.94
2023-04-15T05:11:54.598Z,98.76
2023-04-15T05:12:26.314Z,98.87
2023-04-15T05:12:58.200Z,98.83
2023-04-15T05:13:30.250Z,98.75
2023-04-15T05:14:02.484Z,98.58
2023-04-15T05:14:34.164Z,98.64
2023-04-15T05:15:06.952Z,98.84
2023-04-15T05:15:41.352Z,98.60
2023-04-15T05:16:12.995Z,98.60
2023-04-15T05:16:44.582Z,98.44
2023-04-15T05:17:16.221Z,98.31
2023-04-15T05:17:47.949Z,98.33
2023-04-15T05:18:19.715Z,98.28
2023-04-15T05:18:51.955Z,98.27
2023-04-15T05:19:23.648Z,98.30
2023-04-15T05:19:55.340Z,98.18
2023-04-15T05:20:26.987Z,98.17
2023-04-15T05:20:59.073Z,98.11
2023-04-15T05:21:31.789Z,97.99
2023-04-15T05:22:03.456Z,98.09
2023-04-15T05:22:35.255Z,98.13
2023-04-15T05:23:07.177Z,98.04
2023-04-15T05:23:38.977Z,98.08
2023-04-15T05:24:10.755Z,98.06
2023-04-15T05:24:42.435Z,97.99
2023-04-15T05:25:14.031Z,97.85
2023-04-15T05:25:45.770Z,97.69
2023-04-15T05:26:17.826Z,97.70
2023-04-15T05:26:49.523Z,97.35
2023-04-15T05:27:22.612Z,97.44
2023-04-15T05:27:54.181Z,97.29
2023-04-15T05:28:25.815Z,97.11
2023-04-15T05:28:57.477Z,96.98
2023-04-15T05:29:29.674Z,96.88
2023-04-15T05:30:01.385Z,96.87
2023-04-15T05:30:32.964Z,96.88
2023-04-15T05:31:04.719Z,96.56
2023-04-15T05:31:36.884Z,96.89
2023-04-15T05:32:08.596Z,96.97
2023-04-15T05:32:40.458Z,96.75
2023-04-15T05:33:12.132Z,96.68
2023-04-15T05:33:44.060Z,96.37
2023-04-15T05:34:18.514Z,96.59
2023-04-15T05:34:50.297Z,96.89
2023-04-15T05:35:22.376Z,96.78
2023-04-15T05:35:53.962Z,97.09
2023-04-15T05:36:26.116Z,96.76
2023-04-15T05:36:57.731Z,96.45
2023-04-15T05:37:29.369Z,96.55
2023-04-15T05:38:01.219Z,96.67
2023-04-15T05:38:32.976Z,96.68
2023-04-15T05:39:04.598Z,96.78
2023-04-15T05:39:36.176Z,96.67
2023-04-15T05:40:10.657Z,96.52
2023-04-15T05:40:42.588Z,95.92
2023-04-15T05:41:17.789Z,95.84
2023-04-15T05:41:51.315Z,95.89
2023-04-15T05:42:23.062Z,95.86
2023-04-15T05:42:54.709Z,95.84
2023-04-15T05:43:26.392Z,96.11
2023-04-15T05:43:58.065Z,95.96
2023-04-15T05:44:29.663Z,96.05
2023-04-15T05:45:01.675Z,96.02
2023-04-15T05:45:33.286Z,95.98
2023-04-15T05:46:05.091Z,96.17
2023-04-15T05:46:36.748Z,96.17
2023-04-15T05:47:08.832Z,96.09
2023-04-15T05:47:40.499Z,95.72
2023-04-15T05:48:12.161Z,95.64
2023-04-15T05:48:43.810Z,95.51
2023-04-15T05:49:15.615Z,95.62
2023-04-15T05:49:47.228Z,95.38
2023-04-15T05:50:18.877Z,95.31
2023-04-15T05:50:50.893Z,95.37
2023-04-15T05:51:22.619Z,95.59
2023-04-15T05:51:54.285Z,94.53
2023-04-15T05:52:26.382Z,94.42
2023-04-15T05:52:58.000Z,94.12
2023-04-15T05:53:29.624Z,94.75
2023-04-15T05:54:01.426Z,95.28
2023-04-15T05:54:33.569Z,95.41
2023-04-15T05:55:05.576Z,95.08
2023-04-15T05:55:37.264Z,95.01
2023-04-15T05:56:08.902Z,94.79
2023-04-15T05:56:40.617Z,94.88
2023-04-15T05:57:12.212Z,95.28
2023-04-15T05:57:43.825Z,95.00
2023-04-15T05:58:15.575Z,95.04
2023-04-15T05:58:47.231Z,94.84
2023-04-15T05:59:18.983Z,94.87
2023-04-15T05:59:52.836Z,95.38
2023-04-15T06:00:24.472Z,95.07
2023-04-15T06:00:56.706Z,95.01
2023-04-15T06:01:28.390Z,94.99
2023-04-15T06:02:00.215Z,94.43
2023-04-15T06:02:31.966Z,94.05
2023-04-15T06:03:04.096Z,94.08
2023-04-15T06:03:36.516Z,93.81
2023-04-15T06:04:08.264Z,93.59
2023-04-15T06:04:39.942Z,92.88
2023-04-15T06:05:12.064Z,92.87
2023-04-15T06:05:45.043Z,92.60
2023-04-15T06:06:16.717Z,92.80
2023-04-15T06:06:48.347Z,92.65
2023-04-15T06:07:20.020Z,92.28
2023-04-15T06:07:51.742Z,92.01
2023-04-15T06:08:23.360Z,91.85
2023-04-15T06:08:55.974Z,91.78
2023-04-15T06:09:28.985Z,91.61
2023-04-15T06:10:00.842Z,91.83
2023-04-15T06:10:36.703Z,91.73
2023-04-15T06:11:08.481Z,92.54
2023-04-15T06:11:41.434Z,92.74
2023-04-15T06:12:13.323Z,92.55
2023-04-15T06:12:47.419Z,93.14
2023-04-15T06:13:18.997Z,92.94
2023-04-15T06:13:50.602Z,92.86
2023-04-15T06:14:22.419Z,92.68
2023-04-15T06:14:54.029Z,92.84
2023-04-15T06:15:25.758Z,93.67
2023-04-15T06:15:57.443Z,93.90
2023-04-15T06:16:29.154Z,94.09
2023-04-15T06:17:00.793Z,94.10
2023-04-15T06:17:32.411Z,93.73
2023-04-15T06:18:04.205Z,93.74
2023-04-15T06:18:35.828Z,93.22
2023-04-15T06:19:07.436Z,93.29
2023-04-15T06:19:39.154Z,93.51
2023-04-15T06:20:11.558Z,94.49
2023-04-15T06:20:43.180Z,94.27
2023-04-15T06:21:15.740Z,94.11
2023-04-15T06:21:47.446Z,93.87
2023-04-15T06:22:19.083Z,94.07
2023-04-15T06:22:50.703Z,93.88
2023-04-15T06:23:22.404Z,94.29
2023-04-15T06:23:54.032Z,94.74
2023-04-15T06:24:25.774Z,95.20
2023-04-15T06:24:57.599Z,95.24
2023-04-15T06:25:29.192Z,94.67
2023-04-15T06:26:01.176Z,94.93
2023-04-15T06:26:32.772Z,94.55
2023-04-15T06:27:04.591Z,94.19
2023-04-15T06:27:36.264Z,93.80
2023-04-15T06:28:07.914Z,93.76
2023-04-15T06:28:39.538Z,93.61
2023-04-15T06:29:11.390Z,93.77
2023-04-15T06:29:43.051Z,93.56
2023-04-15T06:30:14.762Z,93.62
2023-04-15T06:30:46.379Z,93.62
2023-04-15T06:31:18.115Z,93.51
2023-04-15T06:31:50.242Z,93.54
2023-04-15T06:32:21.931Z,93.14
2023-04-15T06:32:54.866Z,93.40
2023-04-15T06:33:26.492Z,93.35
2023-04-15T06:33:58.087Z,92.86
2023-04-15T06:34:29.708Z,92.12
2023-04-15T06:35:01.440Z,91.86
2023-04-15T06:35:33.132Z,91.94
2023-04-15T06:36:04.946Z,92.10
2023-04-15T06:36:36.534Z,92.08
2023-04-15T06:37:10.096Z,92.05
2023-04-15T06:37:41.686Z,91.64
2023-04-15T06:38:14.468Z,91.04
2023-04-15T06:38:46.064Z,90.59
2023-04-15T06:39:17.689Z,90.32
2023-04-15T06:39:49.299Z,90.67
2023-04-15T06:40:21.054Z,90.53
2023-04-15T06:40:52.659Z,89.90
2023-04-15T06:41:24.395Z,89.45
2023-04-15T06:41:56.547Z,89.33
2023-04-15T06:42:28.225Z,89.71
2023-04-15T06:42:59.840Z,90.16
2023-04-15T06:43:31.481Z,89.86
2023-04-15T06:44:03.418Z,89.11
2023-04-15T06:44:35.232Z,88.80
2023-04-15T06:45:07.399Z,88.53
2023-04-15T06:45:39.617Z,88.30
2023-04-15T06:46:11.582Z,88.05
2023-04-15T06:46:43.207Z,89.15
2023-04-15T06:47:15.494Z,88.56
2023-04-15T06:47:47.211Z,87.45
2023-04-15T06:48:18.953Z,87.02
2023-04-15T06:48:50.531Z,87.07
2023-04-15T06:49:22.390Z,86.73
2023-04-15T06:49:54.477Z,86.27
2023-04-15T06:50:26.383Z,86.17
2023-04-15T06:50:58.894Z,86.06
2023-04-15T06:51:31.475Z,85.86
2023-04-15T06:52:04.479Z,85.96
2023-04-15T06:52:36.229Z,85.22
2023-04-15T06:53:07.869Z,85.26